createdAt,value
2018-06-29T00:00:12.977Z,101186.00
2018-06-29T00:02:42.106Z,101190.00
2018-06-29T00:05:11.282Z,101175.00
2018-06-29T00:07:40.411Z,101172.00
2018-06-29T00:10:09.621Z,101173.00
2018-06-29T00:12:38.735Z,101167.00
2018-06-29T00:15:07.875Z,101167.00
2018-06-29T00:17:37.038Z,101178.00
2018-06-29T00:20:06.262Z,101173.00
2018-06-29T00:22:35.418Z,101174.00
2018-06-29T00:25:04.617Z,101182.00
2018-06-29T00:27:33.741Z,101187.00
2018-06-29T00:30:02.926Z,101188.00
2018-06-29T00:32:32.030Z,101185.00
2018-06-29T00:35:01.159Z,101184.00
2018-06-29T00:37:30.348Z,101187.00
2018-06-29T00:39:59.567Z,101191.00
2018-06-29T00:42:28.691Z,101188.00
2018-06-29T00:44:57.973Z,101184.00
2018-06-29T00:47:27.179Z,101184.00
2018-06-29T00:49:56.267Z,101175.00
2018-06-29T00:52:25.417Z,101172.00
2018-06-29T00:54:54.586Z,101188.00
2018-06-29T00:57:23.781Z,101192.00
2018-06-29T00:59:52.975Z,101190.00
2018-06-29T01:02:22.106Z,101174.00
2018-06-29T01:04:51.366Z,101187.00
2018-06-29T01:07:20.506Z,101184.00
2018-06-29T01:09:49.725Z,101185.00
2018-06-29T01:12:18.862Z,101192.00
2018-06-29T01:14:47.997Z,101192.00
2018-06-29T01:17:17.145Z,101186.00
2018-06-29T01:19:46.341Z,101179.00
2018-06-29T01:22:15.508Z,101178.00
2018-06-29T01:24:44.675Z,101176.00
2018-06-29T01:27:13.857Z,101176.00
2018-06-29T01:29:43.039Z,101167.00
2018-06-29T01:32:12.236Z,101169.00
2018-06-29T01:34:41.399Z,101170.00
2018-06-29T01:37:10.528Z,101177.00
2018-06-29T01:39:39.706Z,101182.00
2018-06-29T01:42:08.830Z,101172.00
2018-06-29T01:44:38.065Z,101170.00
2018-06-29T01:47:07.568Z,101172.00
2018-06-29T01:49:36.706Z,101178.00
2018-06-29T01:52:06.126Z,101181.00
2018-06-29T01:54:35.285Z,101178.00
2018-06-29T01:57:04.434Z,101183.00
2018-06-29T01:59:33.581Z,101172.00
2018-06-29T02:02:02.724Z,101175.00
2018-06-29T02:04:31.927Z,101164.00
2018-06-29T02:07:01.250Z,101166.00
2018-06-29T02:09:30.602Z,101164.00
2018-06-29T02:11:59.788Z,101165.00
2018-06-29T02:14:28.963Z,101157.00
2018-06-29T02:16:58.081Z,101163.00
2018-06-29T02:19:27.299Z,101158.00
2018-06-29T02:21:56.397Z,101155.00
2018-06-29T02:24:25.594Z,101151.00
2018-06-29T02:26:54.819Z,101154.00
2018-06-29T02:29:23.978Z,101150.00
2018-06-29T02:31:53.188Z,101148.00
2018-06-29T02:34:22.349Z,101143.00
2018-06-29T02:36:51.579Z,101142.00
2018-06-29T02:39:20.771Z,101149.00
2018-06-29T02:41:50.034Z,101143.00
2018-06-29T02:44:19.199Z,101138.00
2018-06-29T02:46:48.293Z,101147.00
2018-06-29T02:49:17.432Z,101141.00
2018-06-29T02:51:46.612Z,101137.00
2018-06-29T02:54:15.759Z,101136.00
2018-06-29T02:56:44.853Z,101129.00
2018-06-29T02:59:13.985Z,101129.00
2018-06-29T03:01:43.173Z,101132.00
2018-06-29T03:04:12.340Z,101126.00
2018-06-29T03:06:41.652Z,101123.00
2018-06-29T03:09:11.062Z,101116.00
2018-06-29T03:11:40.292Z,101108.00
2018-06-29T03:14:09.481Z,101118.00
2018-06-29T03:16:38.685Z,101110.00
2018-06-29T03:19:07.882Z,101109.00
2018-06-29T03:21:37.037Z,101102.00
2018-06-29T03:24:06.155Z,101100.00
2018-06-29T03:26:35.585Z,101096.00
2018-06-29T03:29:04.802Z,101090.00
2018-06-29T03:31:33.950Z,101092.00
2018-06-29T03:34:03.068Z,101088.00
2018-06-29T03:36:32.249Z,101082.00
2018-06-29T03:39:01.388Z,101081.00
2018-06-29T03:41:30.533Z,101082.00
2018-06-29T03:43:59.748Z,101076.00
2018-06-29T03:46:28.943Z,101072.00
2018-06-29T03:48:58.100Z,101075.00
2018-06-29T03:51:27.216Z,101083.00
2018-06-29T03:53:56.335Z,101081.00
2018-06-29T03:56:25.527Z,101082.00
2018-06-29T03:58:55.001Z,101077.00
2018-06-29T04:01:24.150Z,101075.00
2018-06-29T04:03:53.298Z,101073.00
2018-06-29T04:06:22.472Z,101068.00
2018-06-29T04:08:51.583Z,101069.00
2018-06-29T04:11:20.710Z,101067.00
2018-06-29T04:13:49.821Z,101062.00
2018-06-29T04:16:18.988Z,101066.00
2018-06-29T04:18:48.157Z,101073.00
2018-06-29T04:21:17.258Z,101067.00
2018-06-29T04:23:46.360Z,101063.00
2018-06-29T04:26:15.459Z,101068.00
2018-06-29T04:28:44.597Z,101062.00
2018-06-29T04:31:13.714Z,101064.00
2018-06-29T04:33:42.863Z,101071.00
2018-06-29T04:36:12.022Z,101078.00
2018-06-29T04:38:41.189Z,101072.00
2018-06-29T04:41:10.333Z,101063.00
2018-06-29T04:43:39.531Z,101071.00
2018-06-29T04:46:08.696Z,101064.00
2018-06-29T04:48:37.881Z,101059.00
2018-06-29T04:51:07.082Z,101068.00
2018-06-29T04:53:36.278Z,101067.00
2018-06-29T04:56:05.406Z,101070.00
2018-06-29T04:58:34.497Z,101063.00
2018-06-29T05:01:03.817Z,101058.00
2018-06-29T05:03:32.928Z,101066.00
2018-06-29T05:06:02.094Z,101056.00
2018-06-29T05:08:31.255Z,101062.00
2018-06-29T05:11:00.424Z,101073.00
2018-06-29T05:13:29.512Z,101066.00
2018-06-29T05:15:58.664Z,101066.00
2018-06-29T05:18:27.845Z,101058.00
2018-06-29T05:20:56.972Z,101061.00
2018-06-29T05:23:26.081Z,101065.00
2018-06-29T05:25:55.227Z,101058.00
2018-06-29T05:28:24.435Z,101059.00
2018-06-29T05:30:53.545Z,101058.00
2018-06-29T05:33:22.730Z,101053.00
2018-06-29T05:35:51.918Z,101050.00
2018-06-29T05:38:21.194Z,101047.00
2018-06-29T05:40:51.295Z,101057.00
2018-06-29T05:43:20.470Z,101062.00
2018-06-29T05:45:49.609Z,101057.00
2018-06-29T05:48:18.858Z,101059.00
2018-06-29T05:50:47.938Z,101059.00
2018-06-29T05:53:17.093Z,101061.00
2018-06-29T05:55:46.144Z,101066.00
2018-06-29T05:58:15.325Z,101057.00
2018-06-29T06:00:44.473Z,101064.00
2018-06-29T06:03:13.641Z,101068.00
2018-06-29T06:05:42.711Z,101060.00
2018-06-29T06:08:11.853Z,101064.00
2018-06-29T06:10:41.022Z,101065.00
2018-06-29T06:13:10.153Z,101067.00
2018-06-29T06:15:39.331Z,101064.00
2018-06-29T06:18:08.556Z,101070.00
2018-06-29T06:20:37.688Z,101076.00
2018-06-29T06:23:20.715Z,101080.00
2018-06-29T06:25:49.874Z,101071.00
2018-06-29T06:28:19.302Z,101077.00
2018-06-29T06:30:48.468Z,101068.00
2018-06-29T06:33:17.667Z,101072.00
2018-06-29T06:35:46.817Z,101070.00
2018-06-29T06:38:15.937Z,101070.00
2018-06-29T06:40:45.130Z,101082.00
2018-06-29T06:43:14.223Z,101070.00
2018-06-29T06:45:43.358Z,101073.00
2018-06-29T06:48:12.538Z,101065.00
2018-06-29T06:50:41.666Z,101067.00
2018-06-29T06:53:10.836Z,101068.00
2018-06-29T06:55:40.047Z,101071.00
2018-06-29T06:58:09.213Z,101067.00
2018-06-29T07:00:38.373Z,101069.00
2018-06-29T07:03:07.559Z,101060.00
2018-06-29T07:05:36.666Z,101064.00
2018-06-29T07:08:06.073Z,101063.00
2018-06-29T07:10:35.196Z,101064.00
2018-06-29T07:13:04.393Z,101061.00
2018-06-29T07:15:33.588Z,101065.00
2018-06-29T07:18:02.744Z,101067.00
2018-06-29T07:20:31.921Z,101075.00
2018-06-29T07:23:01.091Z,101067.00
2018-06-29T07:25:30.216Z,101072.00
2018-06-29T07:27:59.312Z,101065.00
2018-06-29T07:30:28.451Z,101066.00
2018-06-29T07:32:57.611Z,101065.00
2018-06-29T07:35:26.754Z,101064.00
2018-06-29T07:37:55.962Z,101058.00
2018-06-29T07:40:25.117Z,101056.00
2018-06-29T07:42:54.274Z,101051.00
2018-06-29T07:45:23.457Z,101056.00
2018-06-29T07:47:52.665Z,101051.00
2018-06-29T07:50:21.862Z,101046.00
2018-06-29T07:52:51.085Z,101043.00
2018-06-29T07:55:20.242Z,101034.00
2018-06-29T07:57:49.362Z,101033.00
2018-06-29T08:00:18.528Z,101037.00
2018-06-29T08:02:47.754Z,101028.00
2018-06-29T08:05:16.922Z,101026.00
2018-06-29T08:07:46.045Z,101025.00
2018-06-29T08:10:15.247Z,101021.00
2018-06-29T08:12:44.435Z,101024.00
2018-06-29T08:15:13.775Z,101028.00
2018-06-29T08:17:42.925Z,101027.00
2018-06-29T08:20:12.174Z,101013.00
2018-06-29T08:22:41.371Z,101024.00
2018-06-29T08:25:14.587Z,101025.00
2018-06-29T08:27:44.036Z,101005.00
2018-06-29T08:30:14.326Z,101014.00
2018-06-29T08:32:43.477Z,101016.00
2018-06-29T08:35:12.613Z,101018.00
2018-06-29T08:37:41.802Z,101020.00
2018-06-29T08:40:11.153Z,101016.00
2018-06-29T08:42:40.317Z,101009.00
2018-06-29T08:45:10.102Z,101009.00
2018-06-29T08:47:39.254Z,100999.00
2018-06-29T08:50:08.366Z,101000.00
2018-06-29T08:52:37.518Z,101002.00
2018-06-29T08:55:06.823Z,100996.00
2018-06-29T08:57:36.100Z,100991.00
2018-06-29T09:00:07.220Z,100990.00
2018-06-29T09:02:36.476Z,100995.00
2018-06-29T09:05:06.226Z,100988.00
2018-06-29T09:07:35.656Z,100991.00
2018-06-29T09:10:05.414Z,100996.00
2018-06-29T09:12:34.602Z,100993.00
2018-06-29T09:15:03.778Z,100994.00
2018-06-29T09:17:32.921Z,100982.00
2018-06-29T09:20:02.119Z,100985.00
2018-06-29T09:22:31.318Z,100979.00
2018-06-29T09:25:00.448Z,100979.00
2018-06-29T09:27:29.642Z,100971.00
2018-06-29T09:29:58.882Z,100969.00
2018-06-29T09:32:28.054Z,100971.00
2018-06-29T09:34:57.165Z,100978.00
2018-06-29T09:37:26.394Z,100968.00
2018-06-29T09:39:55.557Z,100969.00
2018-06-29T09:42:24.716Z,100964.00
2018-06-29T09:44:53.850Z,100954.00
2018-06-29T09:47:23.003Z,100954.00
2018-06-29T09:49:52.141Z,100959.00
2018-06-29T09:52:21.269Z,100956.00
2018-06-29T09:54:50.435Z,100957.00
2018-06-29T09:57:19.654Z,100952.00
2018-06-29T09:59:48.883Z,100940.00
2018-06-29T10:02:18.017Z,100946.00
2018-06-29T10:04:47.134Z,100949.00
2018-06-29T10:07:16.275Z,100945.00
2018-06-29T10:09:45.395Z,100950.00
2018-06-29T10:12:14.501Z,100940.00
2018-06-29T10:14:43.639Z,100936.00
2018-06-29T10:17:12.772Z,100930.00
2018-06-29T10:19:41.997Z,100938.00
2018-06-29T10:22:11.150Z,100936.00
2018-06-29T10:24:40.301Z,100932.00
2018-06-29T10:27:09.416Z,100932.00
2018-06-29T10:29:38.581Z,100924.00
2018-06-29T10:32:07.716Z,100930.00
2018-06-29T10:34:36.889Z,100930.00
2018-06-29T10:37:06.009Z,100926.00
2018-06-29T10:39:35.490Z,100922.00
2018-06-29T10:42:04.654Z,100915.00
2018-06-29T10:44:33.913Z,100916.00
2018-06-29T10:47:03.146Z,100907.00
2018-06-29T10:49:32.355Z,100908.00
2018-06-29T10:52:01.496Z,100905.00
2018-06-29T10:54:30.673Z,100909.00
2018-06-29T10:56:59.821Z,100913.00
2018-06-29T10:59:28.951Z,100903.00
2018-06-29T11:01:58.126Z,100891.00
2018-06-29T11:04:27.325Z,100893.00
2018-06-29T11:06:56.420Z,100890.00
2018-06-29T11:09:25.570Z,100896.00
2018-06-29T11:11:54.759Z,100901.00
2018-06-29T11:14:23.906Z,100897.00
2018-06-29T11:16:53.102Z,100888.00
2018-06-29T11:19:22.309Z,100886.00
2018-06-29T11:21:51.641Z,100880.00
2018-06-29T11:24:20.835Z,100875.00
2018-06-29T11:26:50.024Z,100871.00
2018-06-29T11:29:19.142Z,100873.00
2018-06-29T11:31:48.268Z,100884.00
2018-06-29T11:34:17.449Z,100877.00
2018-06-29T11:36:46.649Z,100879.00
2018-06-29T11:39:15.711Z,100867.00
2018-06-29T11:41:44.895Z,100873.00
2018-06-29T11:44:14.093Z,100872.00
2018-06-29T11:46:43.245Z,100857.00
2018-06-29T11:49:12.455Z,100863.00
2018-06-29T11:51:41.556Z,100862.00
2018-06-29T11:54:10.753Z,100858.00
2018-06-29T11:56:39.872Z,100865.00
2018-06-29T11:59:09.015Z,100853.00
2018-06-29T12:01:38.142Z,100858.00
2018-06-29T12:04:07.273Z,100857.00
2018-06-29T12:06:36.444Z,100856.00
2018-06-29T12:09:08.888Z,100862.00
2018-06-29T12:11:38.138Z,100862.00
2018-06-29T12:14:07.342Z,100858.00
2018-06-29T12:16:36.463Z,100859.00
2018-06-29T12:19:05.584Z,100858.00
2018-06-29T12:21:34.734Z,100849.00
2018-06-29T12:24:03.874Z,100839.00
2018-06-29T12:26:33.054Z,100844.00
2018-06-29T12:29:02.218Z,100844.00
2018-06-29T12:31:31.314Z,100844.00
2018-06-29T12:34:00.504Z,100836.00
2018-06-29T12:36:29.643Z,100843.00
2018-06-29T12:38:58.838Z,100832.00
2018-06-29T12:41:27.974Z,100839.00
2018-06-29T12:43:57.101Z,100832.00
2018-06-29T12:46:26.225Z,100824.00
2018-06-29T12:48:55.180Z,100826.00
2018-06-29T12:51:24.399Z,100822.00
2018-06-29T12:53:53.522Z,100809.00
2018-06-29T12:56:22.658Z,100802.00
2018-06-29T12:58:51.950Z,100804.00
2018-06-29T13:01:21.107Z,100794.00
2018-06-29T13:03:50.239Z,100807.00
2018-06-29T13:06:19.393Z,100803.00
2018-06-29T13:08:48.789Z,100800.00
2018-06-29T13:11:17.879Z,100806.00
2018-06-29T13:13:47.082Z,100797.00
2018-06-29T13:16:16.217Z,100791.00
2018-06-29T13:18:45.405Z,100794.00
2018-06-29T13:21:14.535Z,100791.00
2018-06-29T13:23:43.674Z,100776.00
2018-06-29T13:26:12.800Z,100774.00
2018-06-29T13:28:41.968Z,100777.00
2018-06-29T13:31:11.120Z,100771.00
2018-06-29T13:33:40.289Z,100780.00
2018-06-29T13:36:09.390Z,100776.00
2018-06-29T13:38:38.543Z,100782.00
2018-06-29T13:41:07.673Z,100772.00
2018-06-29T13:43:36.835Z,100763.00
2018-06-29T13:46:06.030Z,100760.00
2018-06-29T13:48:35.224Z,100759.00
2018-06-29T13:51:04.405Z,100765.00
2018-06-29T13:53:33.534Z,100748.00
2018-06-29T13:56:02.673Z,100740.00
2018-06-29T13:58:31.844Z,100750.00
2018-06-29T14:01:01.072Z,100750.00
2018-06-29T14:03:30.200Z,100748.00
2018-06-29T14:05:59.366Z,100750.00
2018-06-29T14:08:28.507Z,100752.00
2018-06-29T14:10:57.780Z,100755.00
2018-06-29T14:13:26.825Z,100754.00
2018-06-29T14:15:55.986Z,100756.00
2018-06-29T14:18:25.117Z,100749.00
2018-06-29T14:20:54.236Z,100743.00
2018-06-29T14:23:23.381Z,100741.00
2018-06-29T14:25:52.588Z,100753.00
2018-06-29T14:28:21.770Z,100758.00
2018-06-29T14:30:50.871Z,100760.00
2018-06-29T14:33:19.992Z,100759.00
2018-06-29T14:35:49.162Z,100753.00
2018-06-29T14:38:18.340Z,100749.00
2018-06-29T14:40:47.613Z,100753.00
2018-06-29T14:43:16.729Z,100755.00
2018-06-29T14:45:45.882Z,100766.00
2018-06-29T14:48:15.001Z,100762.00
2018-06-29T14:50:44.093Z,100759.00
2018-06-29T14:53:13.180Z,100766.00
2018-06-29T14:55:42.363Z,100760.00
2018-06-29T14:58:11.457Z,100764.00
2018-06-29T15:00:40.593Z,100762.00
2018-06-29T15:03:09.750Z,100756.00
2018-06-29T15:05:38.907Z,100751.00
2018-06-29T15:08:08.054Z,100755.00
2018-06-29T15:10:37.322Z,100751.00
2018-06-29T15:13:07.125Z,100758.00
2018-06-29T15:15:36.267Z,100758.00
2018-06-29T15:18:06.277Z,100744.00
2018-06-29T15:20:35.363Z,100743.00
2018-06-29T15:23:04.505Z,100748.00
2018-06-29T15:25:33.605Z,100736.00
2018-06-29T15:28:02.691Z,100739.00
2018-06-29T15:30:31.881Z,100746.00
2018-06-29T15:33:01.093Z,100745.00
2018-06-29T15:35:30.214Z,100750.00
2018-06-29T15:37:59.410Z,100761.00
2018-06-29T15:40:28.503Z,100763.00
2018-06-29T15:42:57.689Z,100766.00
2018-06-29T15:45:26.829Z,100770.00
2018-06-29T15:47:55.928Z,100778.00
2018-06-29T15:50:25.117Z,100785.00
2018-06-29T15:52:54.298Z,100800.00
2018-06-29T15:55:23.648Z,100809.00
2018-06-29T15:57:52.797Z,100815.00
2018-06-29T16:00:21.890Z,100818.00
2018-06-29T16:02:51.060Z,100822.00
2018-06-29T16:05:20.233Z,100824.00
2018-06-29T16:07:49.421Z,100817.00
2018-06-29T16:10:18.568Z,100820.00
2018-06-29T16:12:47.702Z,100808.00
2018-06-29T16:15:16.816Z,100813.00
2018-06-29T16:17:45.976Z,100813.00
2018-06-29T16:20:15.167Z,100825.00
2018-06-29T16:22:44.272Z,100832.00
2018-06-29T16:25:13.414Z,100822.00
2018-06-29T16:27:42.547Z,100831.00
2018-06-29T16:30:11.730Z,100833.00
2018-06-29T16:32:40.939Z,100834.00
2018-06-29T16:35:10.239Z,100831.00
2018-06-29T16:37:39.636Z,100830.00
2018-06-29T16:40:08.793Z,100834.00
2018-06-29T16:42:37.916Z,100850.00
2018-06-29T16:45:07.151Z,100845.00
2018-06-29T16:47:36.458Z,100828.00
2018-06-29T16:50:05.760Z,100839.00
2018-06-29T16:52:34.903Z,100844.00
2018-06-29T16:55:04.067Z,100847.00
2018-06-29T16:57:33.206Z,100839.00
2018-06-29T17:00:02.348Z,100831.00
2018-06-29T17:02:31.483Z,100835.00
2018-06-29T17:05:00.686Z,100844.00
2018-06-29T17:07:29.853Z,100844.00
2018-06-29T17:09:59.012Z,100846.00
2018-06-29T17:12:28.130Z,100847.00
2018-06-29T17:14:57.311Z,100844.00
2018-06-29T17:17:26.454Z,100862.00
2018-06-29T17:19:55.611Z,100863.00
2018-06-29T17:22:24.814Z,100860.00
2018-06-29T17:24:53.937Z,100862.00
2018-06-29T17:27:23.122Z,100866.00
2018-06-29T17:29:52.295Z,100876.00
2018-06-29T17:32:21.408Z,100880.00
2018-06-29T17:34:50.641Z,100877.00
2018-06-29T17:37:19.777Z,100874.00
2018-06-29T17:39:48.980Z,100881.00
2018-06-29T17:42:18.081Z,100879.00
2018-06-29T17:44:47.250Z,100885.00
2018-06-29T17:47:16.405Z,100890.00
2018-06-29T17:49:45.770Z,100887.00
2018-06-29T17:52:14.969Z,100886.00
2018-06-29T17:54:44.178Z,100891.00
2018-06-29T17:57:13.633Z,100893.00
2018-06-29T17:59:42.762Z,100889.00
2018-06-29T18:02:11.919Z,100890.00
2018-06-29T18:04:41.066Z,100888.00
2018-06-29T18:07:10.180Z,100895.00
2018-06-29T18:09:39.367Z,100890.00
2018-06-29T18:12:08.497Z,100888.00
2018-06-29T18:14:37.442Z,100890.00
2018-06-29T18:17:06.597Z,100893.00
2018-06-29T18:19:35.784Z,100898.00
2018-06-29T18:22:04.899Z,100893.00
2018-06-29T18:24:33.861Z,100903.00
2018-06-29T18:27:03.087Z,100902.00
2018-06-29T18:29:32.224Z,100905.00
2018-06-29T18:32:01.308Z,100909.00
2018-06-29T18:34:30.475Z,100911.00
2018-06-29T18:36:59.589Z,100903.00
2018-06-29T18:39:28.765Z,100908.00
2018-06-29T18:41:57.933Z,100907.00
2018-06-29T18:44:27.076Z,100908.00
2018-06-29T18:46:56.218Z,100913.00
2018-06-29T18:49:25.413Z,100917.00
2018-06-29T18:51:54.617Z,100919.00
2018-06-29T18:54:23.749Z,100916.00
2018-06-29T18:56:52.962Z,100922.00
2018-06-29T18:59:22.157Z,100923.00
2018-06-29T19:01:51.285Z,100926.00
2018-06-29T19:04:20.458Z,100932.00
2018-06-29T19:06:49.618Z,100925.00
2018-06-29T19:09:18.797Z,100937.00
2018-06-29T19:11:47.992Z,100934.00
2018-06-29T19:14:17.125Z,100941.00
2018-06-29T19:16:46.313Z,100949.00
2018-06-29T19:19:15.504Z,100947.00
2018-06-29T19:21:44.623Z,100952.00
2018-06-29T19:24:13.799Z,100960.00
2018-06-29T19:26:42.946Z,100957.00
2018-06-29T19:29:12.062Z,100957.00
2018-06-29T19:31:41.268Z,100961.00
2018-06-29T19:34:10.552Z,100965.00
2018-06-29T19:36:39.714Z,100961.00
2018-06-29T19:39:10.427Z,100968.00
2018-06-29T19:41:40.849Z,100968.00
2018-06-29T19:44:10.873Z,100965.00
2018-06-29T19:46:40.332Z,100972.00
2018-06-29T19:49:10.143Z,100975.00
2018-06-29T19:51:39.298Z,100978.00
2018-06-29T19:54:08.486Z,100978.00
2018-06-29T19:56:37.576Z,100987.00
2018-06-29T19:59:06.702Z,100981.00
2018-06-29T20:01:35.828Z,100989.00
2018-06-29T20:04:05.022Z,100983.00
2018-06-29T20:06:34.138Z,100999.00
2018-06-29T20:09:03.290Z,100992.00
2018-06-29T20:11:32.508Z,101001.00
2018-06-29T20:14:01.622Z,101005.00
2018-06-29T20:16:30.811Z,101004.00
2018-06-29T20:18:59.984Z,100996.00
2018-06-29T20:21:29.129Z,101007.00
2018-06-29T20:23:58.292Z,101019.00
2018-06-29T20:26:27.442Z,101010.00
2018-06-29T20:28:56.586Z,101015.00
2018-06-29T20:31:25.798Z,101015.00
2018-06-29T20:33:55.060Z,101027.00
2018-06-29T20:36:24.232Z,101021.00
2018-06-29T20:38:53.549Z,101017.00
2018-06-29T20:41:22.618Z,101030.00
2018-06-29T20:43:51.759Z,101027.00
2018-06-29T20:46:20.935Z,101028.00
2018-06-29T20:48:50.143Z,101033.00
2018-06-29T20:51:19.333Z,101036.00
2018-06-29T20:53:48.524Z,101046.00
2018-06-29T20:56:17.649Z,101045.00
2018-06-29T20:58:46.838Z,101048.00
2018-06-29T21:01:16.141Z,101063.00
2018-06-29T21:03:45.351Z,101061.00
2018-06-29T21:06:14.515Z,101063.00
2018-06-29T21:08:43.644Z,101064.00
2018-06-29T21:11:12.959Z,101070.00
2018-06-29T21:13:42.151Z,101071.00
2018-06-29T21:16:11.266Z,101072.00
2018-06-29T21:18:40.364Z,101082.00
2018-06-29T21:21:09.473Z,101076.00
2018-06-29T21:23:38.677Z,101081.00
2018-06-29T21:26:07.891Z,101080.00
2018-06-29T21:28:37.222Z,101075.00
2018-06-29T21:31:06.561Z,101082.00
2018-06-29T21:33:35.740Z,101084.00
2018-06-29T21:36:04.869Z,101088.00
2018-06-29T21:38:34.010Z,101102.00
2018-06-29T21:41:03.154Z,101095.00
2018-06-29T21:43:32.296Z,101101.00
2018-06-29T21:46:01.501Z,101112.00
2018-06-29T21:48:30.676Z,101104.00
2018-06-29T21:50:59.841Z,101106.00
2018-06-29T21:53:28.981Z,101108.00
2018-06-29T21:55:58.089Z,101113.00
2018-06-29T21:58:27.310Z,101118.00
2018-06-29T22:00:56.505Z,101124.00
2018-06-29T22:03:25.687Z,101127.00
2018-06-29T22:05:54.858Z,101127.00
2018-06-29T22:08:23.988Z,101127.00
2018-06-29T22:10:53.140Z,101138.00
2018-06-29T22:13:22.265Z,101137.00
2018-06-29T22:15:51.407Z,101141.00
2018-06-29T22:18:20.594Z,101144.00
2018-06-29T22:20:49.736Z,101141.00
2018-06-29T22:23:18.891Z,101139.00
2018-06-29T22:25:48.040Z,101140.00
2018-06-29T22:28:17.203Z,101143.00
2018-06-29T22:30:46.361Z,101141.00
2018-06-29T22:33:15.545Z,101150.00
2018-06-29T22:35:44.786Z,101147.00
2018-06-29T22:38:13.924Z,101156.00
2018-06-29T22:40:43.033Z,101157.00
2018-06-29T22:43:12.157Z,101156.00
2018-06-29T22:45:41.319Z,101163.00
2018-06-29T22:48:10.526Z,101164.00
2018-06-29T22:50:39.641Z,101168.00
2018-06-29T22:53:08.749Z,101168.00
2018-06-29T22:55:38.010Z,101166.00
2018-06-29T22:58:07.121Z,101164.00
2018-06-29T23:00:36.228Z,101168.00
2018-06-29T23:03:08.927Z,101171.00
2018-06-29T23:05:38.113Z,101173.00
2018-06-29T23:08:08.433Z,101174.00
2018-06-29T23:10:37.621Z,101176.00
2018-06-29T23:13:07.266Z,101183.00
2018-06-29T23:15:36.437Z,101179.00
2018-06-29T23:18:05.827Z,101181.00
2018-06-29T23:20:34.932Z,101181.00
2018-06-29T23:23:04.098Z,101180.00
2018-06-29T23:25:33.251Z,101194.00
2018-06-29T23:28:02.378Z,101192.00
2018-06-29T23:30:31.485Z,101187.00
2018-06-29T23:33:00.645Z,101191.00
2018-06-29T23:35:29.761Z,101190.00
2018-06-29T23:37:58.877Z,101198.00
2018-06-29T23:40:28.043Z,101205.00
2018-06-29T23:42:57.197Z,101204.00
2018-06-29T23:45:26.352Z,101204.00
2018-06-29T23:47:55.460Z,101201.00
2018-06-29T23:50:24.582Z,101199.00
2018-06-29T23:52:53.735Z,101205.00
2018-06-29T23:55:22.909Z,101220.00
2018-06-29T23:57:52.026Z,101213.00
